.
WxDataArchive / Data Records for 2006-08-30
2006-08-29 August 2006 2006-08-31

Data Records for Wednesday, 30 August 2006

Time	Temp	Chill	HIndex	Humid	Dewpt	 Wind 	HiWind	WindDir	Rain 	Barom 
-----	----	-----	------	-----	-----	------	------	-------	-----	----- 
00:00	64.0	64.0	64.0	96	62.8	0	0	---	0.00	29.890 
00:05	64.0	64.0	64.0	96	62.8	0	0	---	0.00	29.890 
00:10	64.0	64.0	64.0	96	62.8	0	0	---	0.00	29.890 
00:15	64.0	64.0	64.0	96	62.8	0	0	---	0.00	29.891 
00:20	64.0	64.0	64.0	96	62.8	0	0	---	0.00	29.891 
00:25	64.0	64.0	64.0	96	62.8	0	0	---	0.00	29.891 
00:30	64.0	64.0	64.0	96	62.8	0	0	---	0.00	29.891 
00:35	64.2	64.2	64.2	96	63.0	0	0	---	0.00	29.891 
00:40	64.2	64.2	64.2	96	63.0	0	0	---	0.00	29.891 
00:45	64.2	64.2	64.2	96	63.0	0	0	---	0.00	29.890 
00:50	64.2	64.2	64.2	96	63.0	0	0	---	0.00	29.890 
00:55	64.2	64.2	64.2	96	63.0	0	0	---	0.00	29.890 
01:00	64.2	64.2	64.2	96	63.0	0	0	---	0.00	29.892 
01:05	64.2	64.2	64.2	96	63.0	0	0	---	0.00	29.892 
01:10	64.2	64.2	64.2	96	63.0	0	0	---	0.00	29.892 
01:15	64.2	64.2	64.2	96	63.0	0	0	---	0.00	29.892 
01:20	64.2	64.2	64.2	96	63.0	0	0	---	0.00	29.892 
01:25	64.3	64.3	64.3	96	63.1	0	0	---	0.00	29.892 
01:30	64.3	64.3	64.3	97	63.4	0	0	---	0.00	29.890 
01:35	64.3	64.3	64.3	97	63.4	0	0	---	0.00	29.890 
01:40	64.2	64.2	64.2	97	63.3	0	0	---	0.00	29.890 
01:45	64.2	64.2	64.2	97	63.3	0	1	90	0.00	29.887 
01:50	64.2	64.2	64.2	96	63.0	0	0	---	0.00	29.887 
01:55	64.0	64.0	64.0	96	62.8	0	0	---	0.00	29.887 
02:00	64.0	64.0	64.0	96	62.8	0	0	---	0.00	29.883 
02:05	64.0	64.0	64.0	96	62.8	0	3	90	0.00	29.883 
02:10	63.9	63.9	63.9	96	62.7	0	1	90	0.00	29.883 
02:15	63.9	63.9	63.9	96	62.7	0	0	---	0.00	29.878 
02:20	63.9	63.9	63.9	96	62.7	0	1	90	0.00	29.878 
02:25	63.9	63.9	63.9	96	62.7	0	1	90	0.00	29.878 
02:30	63.9	63.9	63.9	96	62.7	0	1	90	0.00	29.876 
02:35	63.9	63.9	63.9	96	62.7	0	0	---	0.00	29.876 
02:40	63.9	63.9	63.9	96	62.7	0	1	90	0.00	29.876 
02:45	63.9	63.9	63.9	96	62.7	0	1	90	0.00	29.877 
02:50	63.9	63.9	63.9	96	62.7	0	1	90	0.00	29.877 
02:55	63.9	63.9	63.9	96	62.7	0	0	---	0.00	29.877 
03:00	63.9	63.9	63.9	96	62.7	0	1	90	0.00	29.876 
03:05	63.9	63.9	63.9	96	62.7	0	2	90	0.00	29.876 
03:10	63.9	63.9	63.9	96	62.7	0	2	90	0.00	29.876 
03:15	63.9	63.9	63.9	96	62.7	0	1	90	0.00	29.883 
03:20	64.0	64.0	64.0	96	62.8	0	1	90	0.00	29.883 
03:25	64.0	64.0	64.0	96	62.8	0	3	112	0.00	29.883 
03:30	64.0	64.0	64.0	96	62.8	0	2	112	0.00	29.884 
03:35	64.0	64.0	64.0	96	62.8	0	1	112	0.00	29.884 
03:40	64.0	64.0	64.0	96	62.8	0	2	90	0.00	29.884 
03:45	64.0	64.0	64.0	96	62.8	0	1	90	0.00	29.884 
03:50	64.0	64.0	64.0	96	62.8	0	0	---	0.00	29.884 
03:55	64.0	64.0	64.0	96	62.8	0	1	90	0.00	29.884 
04:00	64.0	64.0	64.0	96	62.8	0	1	90	0.00	29.883 
04:05	64.0	64.0	64.0	96	62.8	0	1	90	0.00	29.883 
04:10	63.9	63.9	63.9	95	62.4	0	0	---	0.00	29.883 
04:15	63.9	63.9	63.9	95	62.4	0	0	---	0.00	29.886 
04:20	63.7	63.7	63.7	95	62.2	0	0	---	0.00	29.886 
04:25	63.7	63.7	63.7	96	62.5	0	0	---	0.00	29.886 
04:30	63.7	63.7	63.7	96	62.5	0	0	---	0.00	29.891 
04:35	63.7	63.7	63.7	96	62.5	0	0	---	0.00	29.891 
04:40	63.7	63.7	63.7	96	62.5	0	0	---	0.00	29.891 
04:45	63.7	63.7	63.7	96	62.5	0	0	---	0.00	29.891 
04:50	63.7	63.7	63.7	96	62.5	0	0	---	0.00	29.891 
04:55	63.7	63.7	63.7	96	62.5	0	0	---	0.00	29.891 
05:00	63.7	63.7	63.7	96	62.5	0	1	90	0.00	29.893 
05:05	63.7	63.7	63.7	96	62.5	0	1	90	0.00	29.893 
05:10	63.7	63.7	63.7	96	62.5	0	3	90	0.00	29.893 
05:15	63.7	63.7	63.7	96	62.5	0	1	90	0.00	29.900 
05:20	63.7	63.7	63.7	96	62.5	0	2	90	0.00	29.900 
05:25	63.7	63.7	63.7	95	62.2	0	3	135	0.00	29.900 
05:30	63.7	63.7	63.7	95	62.2	0	1	135	0.00	29.901 
05:35	63.7	63.7	63.7	95	62.2	0	2	135	0.00	29.901 
05:40	63.7	63.7	63.7	94	61.9	0	1	135	0.00	29.901 
05:45	63.7	63.7	63.7	94	61.9	0	1	135	0.00	29.903 
05:50	63.9	63.9	63.9	94	62.1	0	1	135	0.00	29.903 
05:55	63.9	63.9	63.9	93	61.8	0	2	112	0.00	29.903 
06:00	63.9	63.9	63.9	93	61.8	0	1	112	0.00	29.906 
06:05	64.0	64.0	64.0	92	61.6	0	2	112	0.00	29.906 
06:10	64.0	64.0	64.0	93	61.9	0	0	---	0.00	29.906 
06:15	64.0	64.0	64.0	93	61.9	0	1	112	0.00	29.907 
06:20	64.0	64.0	64.0	93	61.9	0	2	112	0.00	29.907 
06:25	64.0	64.0	64.0	93	61.9	0	0	---	0.00	29.907 
06:30	64.0	64.0	64.0	93	61.9	0	2	112	0.00	29.908 
06:35	64.0	64.0	64.0	93	61.9	0	1	112	0.00	29.908 
06:40	64.0	64.0	64.0	93	61.9	0	2	112	0.00	29.908 
06:45	64.0	64.0	64.0	93	61.9	0	1	112	0.00	29.912 
06:50	64.0	64.0	64.0	92	61.6	0	1	112	0.00	29.912 
06:55	64.0	64.0	64.0	92	61.6	0	1	112	0.00	29.912 
07:00	64.2	64.2	64.2	92	61.8	0	2	135	0.00	29.919 
07:05	64.2	64.2	64.2	92	61.8	0	1	135	0.00	29.919 
07:10	64.2	64.2	64.2	92	61.8	1	2	112	0.00	29.919 
07:15	64.2	64.2	64.2	92	61.8	1	2	112	0.00	29.921 
07:20	64.2	64.2	64.2	92	61.8	1	2	90	0.00	29.921 
07:25	64.2	64.2	64.2	92	61.8	1	3	90	0.00	29.921 
07:30	64.3	64.3	64.3	92	61.9	1	3	135	0.00	29.922 
07:35	64.3	64.3	64.3	92	61.9	0	2	135	0.00	29.922 
07:40	64.3	64.3	64.3	92	61.9	0	2	135	0.00	29.922 
07:45	64.3	64.3	64.3	92	61.9	0	1	90	0.00	29.926 
07:50	64.3	64.3	64.3	91	61.6	1	3	112	0.00	29.926 
07:55	64.3	64.3	64.3	91	61.6	1	4	112	0.00	29.926 
08:00	64.5	64.5	64.5	91	61.8	1	4	90	0.00	29.926 
08:05	64.5	64.5	64.5	91	61.8	1	3	112	0.00	29.926 
08:10	64.7	64.7	64.7	90	61.7	1	4	90	0.00	29.926 
08:15	64.7	64.7	64.7	90	61.7	0	2	90	0.00	29.929 
08:20	64.8	64.8	64.8	90	61.8	1	4	112	0.00	29.929 
08:25	65.0	65.0	65.0	90	62.0	2	4	90	0.00	29.929 
08:30	65.0	65.0	65.0	89	61.7	1	7	90	0.00	29.933 
08:35	65.2	65.2	65.2	90	62.2	1	3	68	0.00	29.933 
08:40	65.3	65.3	65.3	89	62.0	1	6	135	0.00	29.933 
08:45	65.5	65.5	65.5	89	62.2	1	6	112	0.00	29.936 
08:50	65.5	65.5	65.5	88	61.8	2	5	90	0.00	29.936 
08:55	65.8	65.8	65.8	88	62.1	2	5	112	0.00	29.936 
09:00	66.0	66.0	66.0	88	62.3	1	5	90	0.00	29.936 
09:05	66.0	66.0	66.0	87	62.0	2	7	90	0.00	29.936 
09:10	66.1	66.1	66.1	87	62.1	1	3	112	0.00	29.936 
09:15	66.3	66.3	66.3	87	62.3	1	5	68	0.00	29.938 
09:20	66.3	66.3	66.3	86	62.0	2	5	90	0.00	29.938 
09:25	66.4	66.4	66.4	86	62.1	2	5	90	0.00	29.938 
09:30	66.6	66.6	66.6	86	62.3	2	6	112	0.00	29.943 
09:35	66.6	66.6	66.6	86	62.3	3	6	68	0.00	29.943 
09:40	66.6	66.6	66.6	86	62.3	2	5	90	0.00	29.943 
09:45	66.6	66.6	66.6	85	61.9	3	7	90	0.00	29.945 
09:50	66.6	66.6	66.6	85	61.9	3	7	90	0.00	29.945 
09:55	66.6	66.6	66.6	86	62.3	3	7	90	0.00	29.945 
10:00	66.6	66.6	66.6	85	61.9	3	10	90	0.00	29.948 
10:05	66.6	66.6	66.6	86	62.3	3	7	90	0.00	29.948 
10:10	66.6	66.6	66.6	86	62.3	3	7	90	0.00	29.948 
10:15	66.8	66.8	66.8	86	62.5	3	8	90	0.00	29.951 
10:20	67.1	67.1	67.1	85	62.4	2	8	90	0.00	29.951 
10:25	67.4	67.4	67.4	84	62.4	2	6	90	0.00	29.951 
10:30	67.4	67.4	67.4	84	62.4	3	7	112	0.00	29.954 
10:35	67.6	67.6	67.6	84	62.6	2	6	90	0.00	29.954 
10:40	67.6	67.6	67.6	83	62.2	3	8	112	0.00	29.954 
10:45	67.6	67.6	67.6	83	62.2	2	7	90	0.00	29.959 
10:50	67.6	67.6	67.6	83	62.2	3	9	90	0.00	29.959 
10:55	67.6	67.6	67.6	83	62.2	3	7	90	0.00	29.959 
11:00	67.6	67.6	67.6	84	62.6	3	7	112	0.00	29.963 
11:05	67.6	67.6	67.6	84	62.6	2	5	112	0.00	29.963 
11:10	67.8	67.8	67.8	85	63.1	1	4	112	0.00	29.963 
11:15	67.9	67.9	67.9	84	62.9	2	5	45	0.00	29.964 
11:20	67.9	67.9	67.9	81	61.8	3	7	90	0.00	29.964 
11:25	67.9	67.9	67.9	84	62.9	3	7	90	0.00	29.964 
11:30	67.9	67.9	67.9	83	62.5	1	4	112	0.00	29.963 
11:35	68.1	68.1	68.1	83	62.7	2	5	112	0.00	29.963 
11:40	68.3	68.3	68.3	81	62.2	1	3	90	0.00	29.963 
11:45	68.4	68.4	68.4	80	62.0	1	3	90	0.00	29.963 
11:50	68.8	68.8	68.8	78	61.7	1	4	90	0.00	29.963 
11:55	69.1	69.1	69.1	77	61.6	2	5	90	0.00	29.963 
12:00	69.3	69.3	69.3	76	61.4	3	7	90	0.00	29.964 
12:05	69.4	69.4	69.4	77	61.9	2	5	112	0.00	29.964 
12:10	69.6	69.6	69.6	78	62.4	1	3	90	0.00	29.964 
12:15	69.9	69.9	69.9	77	62.3	2	4	112	0.00	29.960 
12:20	70.1	70.1	70.1	79	63.3	1	3	90	0.00	29.960 
12:25	70.3	70.3	70.3	77	62.7	1	4	45	0.00	29.960 
12:30	70.4	70.4	70.4	76	62.5	2	7	90	0.00	29.955 
12:35	70.8	70.8	70.8	75	62.5	3	11	90	0.00	29.955 
12:40	71.3	71.3	71.3	73	62.2	3	9	90	0.00	29.955 
12:45	71.6	71.6	71.6	73	62.5	3	7	90	0.00	29.952 
12:50	71.5	71.5	71.5	75	63.1	2	4	90	0.00	29.952 
12:55	71.5	71.5	71.5	72	62.0	3	7	90	0.00	29.952 
13:00	71.5	71.5	71.5	71	61.6	5	11	90	0.00	29.948 
13:05	71.6	71.6	71.6	71	61.7	3	9	112	0.00	29.948 
13:10	71.8	71.8	71.8	69	61.1	4	11	90	0.00	29.948 
13:15	72.3	72.3	72.3	69	61.5	4	10	90	0.00	29.947 
13:20	72.7	72.7	72.7	70	62.3	2	5	90	0.00	29.947 
13:25	72.8	72.8	72.8	70	62.4	3	8	90	0.00	29.947 
13:30	72.8	72.8	72.8	69	62.0	4	12	90	0.00	29.946 
13:35	72.8	72.8	72.8	69	62.0	4	10	90	0.00	29.946 
13:40	73.0	73.0	73.0	69	62.2	4	10	90	0.00	29.946 
13:45	72.8	72.8	72.8	68	61.6	5	10	90	0.00	29.945 
13:50	72.7	72.7	72.7	69	61.9	4	10	90	0.00	29.945 
13:55	72.3	72.3	72.3	70	62.0	3	7	90	0.00	29.945 
14:00	72.3	72.3	72.3	69	61.5	3	10	90	0.00	29.947 
14:05	72.1	72.1	72.1	69	61.4	4	9	112	0.00	29.947 
14:10	72.0	72.0	72.0	69	61.3	2	5	90	0.00	29.947 
14:15	72.0	72.0	72.0	68	60.8	3	7	90	0.00	29.947 
14:20	71.8	71.8	71.8	67	60.2	3	7	90	0.00	29.947 
14:25	72.0	72.0	72.0	68	60.8	3	11	112	0.00	29.947 
14:30	71.8	71.8	71.8	67	60.2	3	11	112	0.00	29.946 
14:35	72.0	72.0	72.0	67	60.4	4	12	90	0.00	29.946 
14:40	72.0	72.0	72.0	68	60.8	2	7	90	0.00	29.946 
14:45	72.0	72.0	72.0	68	60.8	3	9	90	0.00	29.947 
14:50	72.1	72.1	72.1	67	60.5	4	11	90	0.00	29.947 
14:55	72.1	72.1	72.1	68	60.9	4	11	90	0.00	29.947 
15:00	72.1	72.1	72.1	69	61.4	3	7	90	0.00	29.947 
15:05	72.3	72.3	72.3	69	61.5	2	7	90	0.00	29.947 
15:10	72.1	72.1	72.1	70	61.8	4	10	90	0.00	29.947 
15:15	72.0	72.0	72.0	72	62.5	3	6	90	0.00	29.947 
15:20	72.0	72.0	72.0	72	62.5	3	7	90	0.00	29.947 
15:25	72.1	72.1	72.1	72	62.6	3	6	90	0.00	29.947 
15:30	72.1	72.1	72.1	71	62.2	2	9	90	0.00	29.946 
15:35	72.1	72.1	72.1	70	61.8	4	9	112	0.00	29.946 
15:40	72.0	72.0	72.0	68	60.8	5	11	90	0.00	29.946 
15:45	71.8	71.8	71.8	66	59.8	4	9	90	0.00	29.943 
15:50	71.8	71.8	71.8	67	60.2	3	9	90	0.00	29.943 
15:55	72.0	72.0	72.0	68	60.8	2	6	90	0.00	29.943 
16:00	72.3	72.3	72.3	67	60.7	3	7	112	0.00	29.946 
16:05	72.3	72.3	72.3	64	59.4	5	11	90	0.00	29.946 
16:10	72.3	72.3	72.3	65	59.9	4	14	90	0.00	29.946 
16:15	72.1	72.1	72.1	64	59.2	4	10	90	0.00	29.945 
16:20	72.0	72.0	72.0	65	59.6	3	6	90	0.00	29.945 
16:25	72.0	72.0	72.0	65	59.6	4	9	90	0.00	29.945 
16:30	72.0	72.0	72.0	66	60.0	3	6	90	0.00	29.944 
16:35	71.8	71.8	71.8	67	60.2	4	10	90	0.00	29.944 
16:40	72.0	72.0	72.0	69	61.3	2	6	90	0.00	29.944 
16:45	72.1	72.1	72.1	68	60.9	3	9	90	0.00	29.939 
16:50	72.3	72.3	72.3	69	61.5	4	9	90	0.00	29.939 
16:55	72.5	72.5	72.5	70	62.1	2	6	90	0.00	29.939 
17:00	72.8	72.8	72.8	66	60.8	3	9	90	0.00	29.936 
17:05	72.7	72.7	72.7	67	61.1	3	11	90	0.00	29.936 
17:10	72.5	72.5	72.5	67	60.9	3	11	90	0.00	29.936 
17:15	72.5	72.5	72.5	67	60.9	4	9	90	0.00	29.940 
17:20	72.3	72.3	72.3	67	60.7	3	5	112	0.00	29.940 
17:25	72.1	72.1	72.1	67	60.5	4	11	90	0.00	29.940 
17:30	72.0	72.0	72.0	66	60.0	3	9	90	0.00	29.943 
17:35	71.8	71.8	71.8	68	60.7	2	5	90	0.00	29.943 
17:40	71.8	71.8	71.8	68	60.7	2	5	112	0.00	29.943 
17:45	71.6	71.6	71.6	69	60.9	2	8	68	0.00	29.942 
17:50	71.6	71.6	71.6	69	60.9	2	5	112	0.00	29.942 
17:55	71.6	71.6	71.6	69	60.9	2	5	90	0.00	29.942 
18:00	71.8	71.8	71.8	70	61.5	2	5	112	0.00	29.937 
18:05	71.8	71.8	71.8	69	61.1	2	6	112	0.00	29.937 
18:10	71.8	71.8	71.8	69	61.1	3	6	90	0.00	29.937 
18:15	71.8	71.8	71.8	69	61.1	2	9	90	0.00	29.939 
18:20	71.8	71.8	71.8	69	61.1	2	10	90	0.00	29.939 
18:25	71.8	71.8	71.8	71	61.9	2	5	90	0.00	29.939 
18:30	71.6	71.6	71.6	70	61.3	2	5	90	0.00	29.933 
18:35	71.6	71.6	71.6	70	61.3	2	6	90	0.00	29.933 
18:40	71.6	71.6	71.6	70	61.3	2	6	90	0.00	29.933 
18:45	71.6	71.6	71.6	72	62.1	2	4	45	0.00	29.932 
18:50	71.6	71.6	71.6	72	62.1	1	5	90	0.00	29.932 
18:55	71.6	71.6	71.6	71	61.7	2	6	68	0.00	29.932 
19:00	71.6	71.6	71.6	71	61.7	1	3	68	0.00	29.932 
19:05	71.8	71.8	71.8	71	61.9	2	4	90	0.00	29.932 
19:10	71.6	71.6	71.6	72	62.1	2	6	112	0.00	29.932 
19:15	71.6	71.6	71.6	72	62.1	3	7	112	0.00	29.931 
19:20	71.5	71.5	71.5	71	61.6	2	6	90	0.00	29.931 
19:25	71.5	71.5	71.5	71	61.6	3	9	112	0.00	29.931 
19:30	71.3	71.3	71.3	71	61.4	2	5	90	0.00	29.932 
19:35	71.3	71.3	71.3	70	61.0	3	11	90	0.00	29.932 
19:40	71.1	71.1	71.1	70	60.8	3	7	90	0.00	29.932 
19:45	71.1	71.1	71.1	71	61.2	2	4	90	0.00	29.935 
19:50	70.9	70.9	70.9	72	61.4	2	4	90	0.00	29.935 
19:55	70.8	70.8	70.8	72	61.3	2	6	90	0.00	29.935 
20:00	70.8	70.8	70.8	72	61.3	3	7	45	0.00	29.937 
20:05	70.6	70.6	70.6	73	61.5	2	5	90	0.00	29.937 
20:10	70.4	70.4	70.4	73	61.3	1	4	90	0.00	29.937 
20:15	70.3	70.3	70.3	74	61.6	1	2	90	0.00	29.941 
20:20	70.1	70.1	70.1	75	61.8	1	5	90	0.00	29.941 
20:25	69.9	69.9	69.9	75	61.6	1	3	68	0.00	29.941 
20:30	69.9	69.9	69.9	76	62.0	1	3	90	0.00	29.948 
20:35	69.8	69.8	69.8	76	61.9	2	5	112	0.00	29.948 
20:40	69.8	69.8	69.8	77	62.3	1	3	112	0.00	29.948 
20:45	69.6	69.6	69.6	77	62.1	1	3	90	0.00	29.951 
20:50	69.6	69.6	69.6	77	62.1	1	3	90	0.00	29.951 
20:55	69.4	69.4	69.4	78	62.2	1	3	90	0.00	29.951 
21:00	69.3	69.3	69.3	78	62.1	1	3	90	0.00	29.959 
21:05	69.3	69.3	69.3	78	62.1	1	3	90	0.00	29.959 
21:10	69.1	69.1	69.1	79	62.3	1	3	90	0.00	29.959 
21:15	69.1	69.1	69.1	79	62.3	1	3	68	0.00	29.964 
21:20	68.9	68.9	68.9	79	62.1	1	2	68	0.00	29.964 
21:25	68.9	68.9	68.9	79	62.1	1	3	68	0.00	29.964 
21:30	68.8	68.8	68.8	80	62.4	1	3	68	0.00	29.968 
21:35	68.8	68.8	68.8	80	62.4	1	3	90	0.00	29.968 
21:40	68.6	68.6	68.6	80	62.2	1	3	90	0.00	29.968 
21:45	68.6	68.6	68.6	80	62.2	1	3	90	0.00	29.974 
21:50	68.6	68.6	68.6	81	62.5	1	2	68	0.00	29.974 
21:55	68.6	68.6	68.6	81	62.5	1	3	90	0.00	29.974 
22:00	68.6	68.6	68.6	81	62.5	1	4	90	0.00	29.978 
22:05	68.4	68.4	68.4	81	62.3	1	3	90	0.00	29.978 
22:10	68.4	68.4	68.4	81	62.3	1	5	90	0.00	29.978 
22:15	68.6	68.6	68.6	81	62.5	2	4	90	0.00	29.980 
22:20	68.6	68.6	68.6	80	62.2	2	5	90	0.00	29.980 
22:25	68.6	68.6	68.6	80	62.2	2	5	90	0.00	29.980 
22:30	68.8	68.8	68.8	80	62.4	2	4	90	0.00	29.981 
22:35	68.6	68.6	68.6	80	62.2	2	7	90	0.00	29.981 
22:40	68.8	68.8	68.8	80	62.4	3	7	90	0.00	29.981 
22:45	68.8	68.8	68.8	79	62.0	2	5	90	0.00	29.981 
22:50	68.6	68.6	68.6	80	62.2	3	7	90	0.00	29.981 
22:55	68.6	68.6	68.6	81	62.5	2	5	90	0.00	29.981 
23:00	68.3	68.3	68.3	80	61.9	3	9	90	0.00	29.982 
23:05	68.3	68.3	68.3	80	61.9	3	7	112	0.00	29.982 
23:10	68.1	68.1	68.1	81	62.0	2	6	90	0.00	29.982 
23:15	67.9	67.9	67.9	81	61.8	2	4	68	0.00	29.985 
23:20	67.8	67.8	67.8	82	62.1	2	5	112	0.00	29.985 
23:25	67.6	67.6	67.6	82	61.9	2	5	45	0.00	29.985 
23:30	67.4	67.4	67.4	80	61.0	3	7	90	0.00	29.985 
23:35	67.3	67.3	67.3	79	60.6	2	9	90	0.00	29.985 
23:40	67.1	67.1	67.1	80	60.7	2	6	90	0.00	29.985 
23:45	66.9	66.9	66.9	80	60.5	2	4	68	0.00	29.991 
23:50	66.8	66.8	66.8	80	60.4	2	7	90	0.00	29.991 
23:55	66.6	66.6	66.6	80	60.2	2	5	68	0.00	29.991 

CoCoRaHS
IN-AL-39
A2 Web Hosting
Creative Commons License
GoDaddy
Look for:

loaded 2017-12-12 16:57:16 • last modified 2010-11-18 10:43:29
Privacy PolicyDisclaimer
• wx.awcolley.com is powered by PmWiki v.2002016 •
• all content (unless otherwise noted) © 2017 A W Colley